»·PEaware :: SWA3534 KOAK-KGEG

SWA3534 :: KOAK-KGEG

FLIGHT INFORMATION

Flight Status: Arrived
Operator:
Southwest Airlines
More flights by this operator :: More flights under this callsign
Pilot: Tyler J. (19619)
Aircraft: BOEING 737-700
(B737)
More flights by this aircraft type
Origin: KOAK Metro Oakland Intl
United States
Destination: KGEG Spokane Intl
United States
More flights between these airports :: More routes between these airports
Route: OAK3 DEDHD BREWW GEG
File this flight plan on PilotEdge
Remarks:
Altitude:
(Current/Filed)
37,000ft
Speed:
(Current/Filed)
430kts
Departed: 03-Jul-18 08:54 AM
Arrived: 03-Jul-18 10:35 AM
Distance/Time
Traveled:
629nm/1:41
Distance/Time
To Go:
Arrived

Flight Plot

Page will automatically refresh every two minutes.

Flight plan parsing failed; only flown route is shown


Map Options




Map Legend


Flown Route
Filed Route
Departure Airport
Arrival Airport
Navaid (VOR, NDB)
Fix

Horizontal Profiles

Position Reports

Time Latitude Longitude Heading Altitude Ground
Speed
03-Jul-18 08:29 37.711319 -122.211522 35 13ft 0kts
03-Jul-18 08:30 37.711319 -122.211522 35 13ft 0kts
03-Jul-18 08:31 37.711319 -122.211522 35 13ft 0kts
03-Jul-18 08:32 37.711319 -122.211522 35 13ft 0kts
03-Jul-18 08:33 37.711319 -122.211522 35 13ft 0kts
03-Jul-18 08:34 37.711319 -122.211522 35 13ft 0kts
03-Jul-18 08:35 37.711319 -122.211522 35 13ft 0kts
03-Jul-18 08:36 37.711319 -122.211522 35 13ft 0kts
03-Jul-18 08:37 37.711319 -122.211522 35 13ft 0kts
03-Jul-18 08:38 37.711319 -122.211522 35 13ft 0kts
03-Jul-18 08:39 37.711319 -122.211522 35 13ft 0kts
03-Jul-18 08:40 37.711319 -122.211522 35 13ft 0kts
03-Jul-18 08:41 37.711319 -122.211522 35 13ft 0kts
03-Jul-18 08:42 37.711319 -122.211522 35 13ft 0kts
03-Jul-18 08:43 37.711319 -122.211522 35 13ft 0kts
03-Jul-18 08:44 37.711163 -122.211660 35 13ft 2kts
03-Jul-18 08:45 37.710802 -122.211978 35 13ft 0kts
03-Jul-18 08:46 37.710802 -122.211978 35 13ft 0kts
03-Jul-18 08:47 37.710802 -122.211978 35 13ft 0kts
03-Jul-18 08:48 37.710802 -122.211978 35 13ft 0kts
03-Jul-18 08:49 37.711133 -122.212528 302 13ft 9kts
03-Jul-18 08:50 37.710815 -122.215205 217 13ft 7kts
03-Jul-18 08:51 37.706986 -122.217965 220 13ft 15kts
03-Jul-18 08:52 37.704326 -122.214637 130 13ft 20kts
03-Jul-18 08:53 37.701897 -122.214841 310 13ft 0kts
03-Jul-18 08:54 37.718972 -122.240488 308 434ft 190kts
03-Jul-18 08:55 37.759962 -122.298162 310 1983ft 259kts
03-Jul-18 08:56 37.809196 -122.367305 310 3223ft 265kts
03-Jul-18 08:57 37.874576 -122.399461 17 7385ft 287kts
03-Jul-18 08:58 37.948919 -122.353747 23 10835ft 309kts
03-Jul-18 08:59 38.035403 -122.300104 24 12556ft 376kts
03-Jul-18 09:00 38.131619 -122.240487 23 15425ft 392kts
03-Jul-18 09:01 38.231295 -122.178185 23 18164ft 406kts
03-Jul-18 09:02 38.335490 -122.116852 14 20666ft 416kts
03-Jul-18 09:03 38.450753 -122.088993 5 22824ft 428kts
03-Jul-18 09:04 38.569457 -122.064203 4 24884ft 437kts
03-Jul-18 09:05 38.691591 -122.038663 4 26588ft 450kts
03-Jul-18 09:06 38.816615 -122.012553 4 28038ft 461kts
03-Jul-18 09:07 38.944346 -121.985734 4 29281ft 472kts
03-Jul-18 09:08 39.074673 -121.958250 4 30686ft 474kts
03-Jul-18 09:09 39.205311 -121.930593 3 32165ft 474kts
03-Jul-18 09:10 39.331641 -121.903746 3 33528ft 473kts
03-Jul-18 09:11 39.461476 -121.876047 3 34827ft 473kts
03-Jul-18 09:12 39.591745 -121.848156 3 35971ft 473kts
03-Jul-18 09:13 39.721719 -121.820223 3 36943ft 474kts
03-Jul-18 09:14 39.851930 -121.792129 3 36946ft 473kts
03-Jul-18 09:15 39.981539 -121.764056 3 36944ft 473kts
03-Jul-18 09:16 40.111659 -121.735764 3 36952ft 473kts
03-Jul-18 09:17 40.241401 -121.707446 3 36958ft 473kts
03-Jul-18 09:18 40.370977 -121.679053 3 36964ft 473kts
03-Jul-18 09:19 40.501107 -121.650427 3 36969ft 473kts
03-Jul-18 09:20 40.630852 -121.621774 3 36974ft 473kts
03-Jul-18 09:21 40.757556 -121.593683 3 36979ft 473kts
03-Jul-18 09:22 40.886778 -121.564922 3 37000ft 471kts
03-Jul-18 09:24 41.016375 -121.535957 2 37034ft 469kts
03-Jul-18 09:25 41.145094 -121.507080 2 37075ft 468kts
03-Jul-18 09:26 41.272557 -121.478374 2 37105ft 468kts
03-Jul-18 09:27 41.400753 -121.449385 2 37124ft 464kts
03-Jul-18 09:28 41.528852 -121.420301 2 37134ft 466kts
03-Jul-18 09:29 41.657247 -121.391034 2 37152ft 473kts
03-Jul-18 09:30 41.786551 -121.361437 2 37160ft 471kts
03-Jul-18 09:31 41.916122 -121.331658 2 37168ft 470kts
03-Jul-18 09:32 42.045454 -121.301812 2 37175ft 471kts
03-Jul-18 09:33 42.174489 -121.271911 2 37179ft 472kts
03-Jul-18 09:34 42.300445 -121.242604 2 37180ft 471kts
03-Jul-18 09:35 42.429409 -121.212473 2 37184ft 469kts
03-Jul-18 09:36 42.558150 -121.182269 2 37188ft 469kts
03-Jul-18 09:37 42.686910 -121.151933 2 37190ft 471kts
03-Jul-18 09:38 42.815498 -121.121511 2 37191ft 469kts
03-Jul-18 09:39 42.944224 -121.090926 2 37195ft 468kts
03-Jul-18 09:40 43.072813 -121.060244 2 37198ft 469kts
03-Jul-18 09:41 43.200593 -121.029625 2 37203ft 466kts
03-Jul-18 09:42 43.327987 -120.998970 3 37209ft 462kts
03-Jul-18 09:43 43.454496 -120.968397 3 37215ft 460kts
03-Jul-18 09:44 43.580407 -120.937838 3 37218ft 460kts
03-Jul-18 09:45 43.702647 -120.908080 3 37219ft 460kts
03-Jul-18 09:46 43.828407 -120.877338 3 37219ft 459kts
03-Jul-18 09:47 43.954664 -120.846240 3 37219ft 460kts
03-Jul-18 09:48 44.075241 -120.777625 24 37220ft 481kts
03-Jul-18 09:49 44.189692 -120.680301 25 37219ft 482kts
03-Jul-18 09:50 44.304249 -120.582964 24 37219ft 483kts
03-Jul-18 09:51 44.419161 -120.485904 25 37219ft 484kts
03-Jul-18 09:52 44.534674 -120.387645 25 37218ft 484kts
03-Jul-18 09:53 44.649760 -120.289212 25 37218ft 485kts
03-Jul-18 09:54 44.764615 -120.190492 25 37217ft 486kts
03-Jul-18 09:55 44.880355 -120.090536 26 37212ft 485kts
03-Jul-18 09:56 44.995168 -119.990900 26 37205ft 488kts
03-Jul-18 09:57 45.107086 -119.893308 26 37206ft 485kts
03-Jul-18 09:58 45.222052 -119.792585 26 37206ft 483kts
03-Jul-18 09:59 45.336947 -119.691444 27 37207ft 491kts
03-Jul-18 10:00 45.452366 -119.589346 27 37201ft 486kts
03-Jul-18 10:01 45.567314 -119.487175 27 37198ft 488kts
03-Jul-18 10:02 45.682640 -119.384155 28 37191ft 487kts
03-Jul-18 10:03 45.796904 -119.281578 28 37184ft 484kts
03-Jul-18 10:04 45.911055 -119.178608 28 37186ft 485kts
03-Jul-18 10:05 46.025479 -119.074876 28 37185ft 485kts
03-Jul-18 10:06 46.139407 -118.971082 28 37134ft 486kts
03-Jul-18 10:07 46.253365 -118.866746 28 34322ft 483kts
03-Jul-18 10:08 46.360800 -118.767897 28 31236ft 472kts
03-Jul-18 10:09 46.464823 -118.671787 28 28876ft 416kts
03-Jul-18 10:10 46.559580 -118.583793 28 26674ft 406kts
03-Jul-18 10:11 46.654048 -118.495729 29 24438ft 395kts
03-Jul-18 10:12 46.744421 -118.411125 29 22258ft 377kts
03-Jul-18 10:13 46.831149 -118.329667 29 20125ft 365kts
03-Jul-18 10:14 46.915240 -118.250316 30 17958ft 356kts
03-Jul-18 10:15 46.997251 -118.172688 30 15871ft 346kts
03-Jul-18 10:16 47.077060 -118.096785 30 13814ft 338kts
03-Jul-18 10:17 47.157952 -118.019577 30 13009ft 358kts
03-Jul-18 10:18 47.240912 -117.939861 33 12953ft 357kts
03-Jul-18 10:19 47.295547 -117.828280 56 12604ft 311kts
03-Jul-18 10:20 47.339440 -117.724718 55 11330ft 293kts
03-Jul-18 10:21 47.382783 -117.624018 55 9777ft 287kts
03-Jul-18 10:22 47.426096 -117.525637 55 8995ft 287kts
03-Jul-18 10:23 47.475958 -117.435038 45 8205ft 281kts
03-Jul-18 10:23 47.519286 -117.367557 45 7147ft 262kts
03-Jul-18 10:24 47.569304 -117.290587 45 6984ft 252kts
03-Jul-18 10:25 47.616787 -117.217558 45 6992ft 244kts
03-Jul-18 10:26 47.669206 -117.153620 35 6993ft 244kts
03-Jul-18 10:27 47.728453 -117.117466 339 6872ft 234kts
03-Jul-18 10:28 47.783937 -117.160977 292 5958ft 226kts
03-Jul-18 10:29 47.777384 -117.245344 255 5902ft 199kts
03-Jul-18 10:30 47.762621 -117.320838 230 5463ft 187kts
03-Jul-18 10:31 47.725050 -117.376768 224 4948ft 184kts
03-Jul-18 10:32 47.693848 -117.423823 224 4093ft 145kts
03-Jul-18 10:33 47.665620 -117.466414 224 3332ft 143kts
03-Jul-18 10:34 47.637466 -117.508964 224 2571ft 143kts
03-Jul-18 10:35 47.618306 -117.537662 228 2380ft 37kts
03-Jul-18 10:36 47.620029 -117.539977 45 2380ft 26kts
03-Jul-18 10:37 47.624206 -117.534422 327 2380ft 12kts
03-Jul-18 10:38 47.625335 -117.534309 2 2380ft 0kts
03-Jul-18 10:39 47.625335 -117.534309 2 2380ft 0kts
03-Jul-18 10:40 47.625335 -117.534309 2 2380ft 0kts

Navigation Log

Ident Type
Flight plan parsing failed, navigation log unavailable